Time;durP1;ratioP1;P1;durP2;ratioP2;P2;SDS_P1;SDS_P2;PMS_P1;PMS_P2;Temp;Humidity;BMP_temperature;BMP_pressure;BME280_temperature;BME280_humidity;BME280_pressure;Samples;Min_cycle;Max_cycle;Signal;HPM_P1;HPM_P2
2023/07/11 00:00:49;;;;;;;4.82;0.95;;;24.80;75.20;;;;;;5033462;28;20026;-75
2023/07/11 00:03:14;;;;;;;4.28;1.00;;;24.80;75.60;;;;;;5015281;28;20532;-74
2023/07/11 00:05:40;;;;;;;2.85;0.70;;;24.90;75.10;;;;;;5033846;28;20033;-75
2023/07/11 00:08:07;;;;;;;4.75;1.13;;;25.00;75.30;;;;;;5034055;28;20026;-74
2023/07/11 00:10:33;;;;;;;3.95;0.98;;;25.00;75.00;;;;;;5033701;28;20045;-74
2023/07/11 00:12:59;;;;;;;2.92;1.15;;;24.90;74.50;;;;;;5016120;28;20041;-74
2023/07/11 00:15:24;;;;;;;2.58;0.70;;;24.90;74.80;;;;;;5033659;28;20037;-74
2023/07/11 00:17:51;;;;;;;1.70;0.77;;;24.80;74.70;;;;;;5033249;28;20087;-74
2023/07/11 00:20:17;;;;;;;5.20;0.93;;;24.80;75.20;;;;;;5016171;28;20116;-75
2023/07/11 00:22:44;;;;;;;2.15;0.80;;;24.90;75.10;;;;;;5033463;28;20033;-74
2023/07/11 00:25:11;;;;;;;3.95;0.93;;;24.80;74.90;;;;;;5033513;28;20128;-74
2023/07/11 00:27:38;;;;;;;3.63;0.75;;;24.80;75.00;;;;;;5015254;28;20482;-73
2023/07/11 00:30:05;;;;;;;2.30;0.70;;;24.80;75.10;;;;;;5033173;28;20382;-74
2023/07/11 00:32:30;;;;;;;1.90;0.60;;;24.80;75.20;;;;;;5015628;28;20037;-73
2023/07/11 00:34:56;;;;;;;1.50;0.60;;;24.80;75.50;;;;;;5032844;28;20037;-74
2023/07/11 00:37:22;;;;;;;2.50;0.65;;;24.80;75.40;;;;;;5033052;28;20030;-74
2023/07/11 00:39:47;;;;;;;3.40;0.82;;;24.80;75.50;;;;;;5033589;28;20029;-74
2023/07/11 00:42:13;;;;;;;2.47;0.50;;;24.80;75.00;;;;;;5033130;28;20100;-74
2023/07/11 00:44:55;;;;;;;3.65;0.82;;;24.80;75.50;;;;;;5033392;28;20056;-74
2023/07/11 00:47:25;;;;;;;2.20;0.57;;;24.80;75.60;;;;;;5033008;28;20052;-74
2023/07/11 00:50:10;;;;;;;1.48;0.60;;;24.90;75.50;;;;;;5032950;28;20033;-74
2023/07/11 00:52:37;;;;;;;2.65;0.80;;;24.90;75.30;;;;;;5033167;28;20040;-74
2023/07/11 00:55:08;;;;;;;2.85;0.95;;;24.90;74.90;;;;;;5033269;28;20037;-74
2023/07/11 00:57:38;;;;;;;2.38;0.68;;;24.90;74.60;;;;;;5032980;28;20029;-74
2023/07/11 01:00:04;;;;;;;2.53;0.73;;;24.90;75.20;;;;;;5015306;28;20385;-74
2023/07/11 01:02:32;;;;;;;1.55;0.45;;;24.90;74.80;;;;;;5033259;28;20109;-75
2023/07/11 01:04:59;;;;;;;2.28;0.63;;;24.80;75.20;;;;;;5032792;28;20029;-74
2023/07/11 01:07:29;;;;;;;1.23;0.47;;;24.90;75.10;;;;;;5032683;28;20068;-74
2023/07/11 01:09:54;;;;;;;1.30;0.50;;;24.90;75.40;;;;;;5033101;28;20067;-75
2023/07/11 01:12:20;;;;;;;4.93;0.60;;;24.90;75.60;;;;;;5033329;28;20069;-74
2023/07/11 01:14:49;;;;;;;3.97;0.57;;;24.90;75.40;;;;;;5036891;28;20077;-74
2023/07/11 01:17:34;;;;;;;4.22;0.90;;;24.90;75.20;;;;;;5036588;28;20017;-74
2023/07/11 01:20:03;;;;;;;2.17;0.60;;;24.90;75.00;;;;;;5036663;28;20068;-74
2023/07/11 01:22:31;;;;;;;2.38;0.70;;;24.90;74.90;;;;;;5036792;28;20053;-74
2023/07/11 01:25:01;;;;;;;2.67;0.70;;;24.90;74.90;;;;;;5036847;28;20060;-74
2023/07/11 01:27:27;;;;;;;1.08;0.47;;;24.90;74.70;;;;;;5036450;28;20045;-73
2023/07/11 01:29:53;;;;;;;1.52;0.70;;;24.80;75.00;;;;;;5036313;28;20060;-74
2023/07/11 01:32:19;;;;;;;3.60;0.90;;;24.80;75.00;;;;;;5036154;28;20034;-74
2023/07/11 01:34:46;;;;;;;3.20;0.70;;;24.70;74.80;;;;;;5036114;28;20036;-74
2023/07/11 01:37:11;;;;;;;1.52;0.68;;;24.70;75.00;;;;;;5036577;28;20377;-74
2023/07/11 01:39:37;;;;;;;2.22;0.50;;;24.70;74.70;;;;;;5018289;28;20029;-74
2023/07/11 01:42:03;;;;;;;2.15;0.57;;;24.70;75.10;;;;;;5036451;28;20493;-74
2023/07/11 01:44:30;;;;;;;3.15;0.60;;;24.60;74.80;;;;;;5036070;28;20041;-74
2023/07/11 01:46:56;;;;;;;1.52;0.70;;;24.60;75.40;;;;;;5036535;28;20030;-74
2023/07/11 01:49:21;;;;;;;2.45;0.82;;;24.60;75.00;;;;;;5036225;28;20405;-73
2023/07/11 01:51:47;;;;;;;1.85;0.57;;;24.60;75.30;;;;;;5036240;28;20053;-73
2023/07/11 01:54:14;;;;;;;1.70;0.50;;;24.60;75.10;;;;;;5036155;28;20061;-74
2023/07/11 01:56:39;;;;;;;4.10;1.02;;;24.60;75.40;;;;;;5036221;28;20030;-74
2023/07/11 01:59:06;;;;;;;5.10;1.10;;;24.50;74.70;;;;;;5035876;28;20029;-73
2023/07/11 02:01:32;;;;;;;3.63;0.73;;;24.40;75.00;;;;;;5036089;28;20029;-74
2023/07/11 02:03:57;;;;;;;2.30;0.75;;;24.40;74.70;;;;;;5017892;28;20037;-74
2023/07/11 02:06:23;;;;;;;3.10;0.73;;;24.40;75.30;;;;;;5035945;28;20036;-75
2023/07/11 02:08:49;;;;;;;2.88;0.60;;;24.50;75.30;;;;;;5036205;28;20032;-74
2023/07/11 02:11:15;;;;;;;2.65;0.50;;;24.50;75.70;;;;;;5035841;28;20037;-74
2023/07/11 02:13:41;;;;;;;1.30;0.35;;;24.50;75.90;;;;;;5018081;28;20034;-74
2023/07/11 02:16:07;;;;;;;2.47;0.60;;;24.60;75.90;;;;;;5035475;28;20040;-75
2023/07/11 02:18:34;;;;;;;2.75;0.63;;;24.50;75.80;;;;;;5018071;28;20167;-74
2023/07/11 02:20:59;;;;;;;1.52;0.45;;;24.50;76.00;;;;;;5035809;28;20048;-74
2023/07/11 02:23:25;;;;;;;1.60;0.70;;;24.60;76.20;;;;;;5035674;28;20378;-74
2023/07/11 02:25:56;;;;;;;2.10;0.70;;;24.60;76.20;;;;;;5035442;28;20167;-74
2023/07/11 02:28:22;;;;;;;2.25;0.60;;;24.60;76.30;;;;;;5016094;28;20448;-74
2023/07/11 02:30:48;;;;;;;1.60;0.50;;;24.60;76.20;;;;;;5017732;28;20484;-74
2023/07/11 02:33:13;;;;;;;2.72;0.60;;;24.60;76.30;;;;;;5035216;28;20064;-75
2023/07/11 02:35:39;;;;;;;1.70;0.60;;;24.60;76.10;;;;;;5017312;28;20033;-75
2023/07/11 02:38:05;;;;;;;2.00;0.55;;;24.60;76.30;;;;;;5035177;28;20041;-74
2023/07/11 02:40:31;;;;;;;1.95;0.55;;;24.60;76.20;;;;;;5035139;28;20037;-74
2023/07/11 02:42:57;;;;;;;2.22;0.60;;;24.60;76.20;;;;;;5035499;28;20026;-74
2023/07/11 02:45:23;;;;;;;2.08;0.47;;;24.60;76.40;;;;;;5017589;28;20057;-74
2023/07/11 02:47:49;;;;;;;1.48;0.50;;;24.60;76.50;;;;;;5035213;28;20026;-74
2023/07/11 02:50:14;;;;;;;2.67;0.70;;;24.60;76.50;;;;;;5034808;28;20091;-74
2023/07/11 02:52:40;;;;;;;3.00;0.52;;;24.60;76.50;;;;;;5017247;28;20044;-74
2023/07/11 02:55:06;;;;;;;2.30;0.55;;;24.60;76.60;;;;;;5000950;28;20033;-74
2023/07/11 02:57:32;;;;;;;2.10;0.73;;;24.60;76.60;;;;;;5034684;28;20051;-75
2023/07/11 02:59:58;;;;;;;1.70;0.38;;;24.50;76.30;;;;;;5017286;28;20549;-75
2023/07/11 03:02:23;;;;;;;2.40;0.57;;;24.50;76.60;;;;;;5034398;28;20100;-74
2023/07/11 03:04:51;;;;;;;1.60;0.50;;;24.50;76.70;;;;;;5034500;28;20057;-75
2023/07/11 03:07:17;;;;;;;2.15;0.50;;;24.50;76.70;;;;;;5034562;28;20440;-74
2023/07/11 03:09:43;;;;;;;1.58;0.50;;;24.50;76.70;;;;;;5017198;28;20067;-75
2023/07/11 03:12:09;;;;;;;4.60;0.80;;;24.60;76.70;;;;;;5034744;28;20453;-74
2023/07/11 03:14:35;;;;;;;1.83;0.60;;;24.50;76.60;;;;;;5034128;28;20481;-74
2023/07/11 03:17:01;;;;;;;1.58;0.60;;;24.50;76.80;;;;;;5017013;28;20105;-74
2023/07/11 03:19:27;;;;;;;1.40;0.65;;;24.50;76.90;;;;;;5017096;28;20079;-74
2023/07/11 03:21:52;;;;;;;1.42;0.45;;;24.50;77.00;;;;;;5034589;28;20474;-75
2023/07/11 03:24:18;;;;;;;1.98;0.77;;;24.50;77.00;;;;;;5033986;28;20032;-73
2023/07/11 03:26:46;;;;;;;2.80;0.80;;;24.50;76.90;;;;;;5034081;28;20029;-73
2023/07/11 03:29:13;;;;;;;2.47;0.65;;;24.50;76.70;;;;;;5034268;28;20025;-73
2023/07/11 03:31:39;;;;;;;4.03;0.57;;;24.40;76.80;;;;;;5034222;28;20104;-73
2023/07/11 03:34:05;;;;;;;2.65;1.13;;;24.40;76.90;;;;;;5033915;28;20033;-73
2023/07/11 03:36:31;;;;;;;1.70;0.50;;;24.40;76.80;;;;;;5015952;28;20045;-73
2023/07/11 03:38:56;;;;;;;1.50;0.60;;;24.40;76.70;;;;;;5034329;28;20379;-75
2023/07/11 03:41:22;;;;;;;2.53;0.90;;;24.40;76.90;;;;;;5033735;28;20108;-73
2023/07/11 03:43:48;;;;;;;1.40;0.50;;;24.40;76.70;;;;;;5034091;28;20060;-74
2023/07/11 03:46:13;;;;;;;3.03;0.80;;;24.40;76.40;;;;;;5033850;28;20029;-74
2023/07/11 03:48:39;;;;;;;5.07;0.90;;;24.40;76.50;;;;;;5034029;28;20036;-74
2023/07/11 03:51:05;;;;;;;2.92;0.75;;;24.40;76.10;;;;;;5033959;28;20450;-74
2023/07/11 03:53:30;;;;;;;4.70;0.88;;;24.40;76.30;;;;;;5033801;28;20037;-73
2023/07/11 03:55:56;;;;;;;1.75;0.57;;;24.40;76.40;;;;;;5016274;28;20040;-74
2023/07/11 03:58:25;;;;;;;1.48;0.50;;;24.30;76.60;;;;;;5016283;28;20052;-73
2023/07/11 04:00:51;;;;;;;2.47;0.80;;;24.30;76.70;;;;;;5033567;28;20100;-75
2023/07/11 04:03:17;;;;;;;1.83;0.80;;;24.30;76.40;;;;;;5033632;28;20026;-74
2023/07/11 04:05:43;;;;;;;3.70;0.70;;;24.30;76.70;;;;;;5015455;28;20073;-75
2023/07/11 04:08:08;;;;;;;4.18;1.00;;;24.30;76.90;;;;;;5033616;28;20033;-75
2023/07/11 04:10:35;;;;;;;1.73;0.60;;;24.20;77.30;;;;;;5032916;28;20037;-74
2023/07/11 04:13:00;;;;;;;2.00;0.60;;;24.20;76.70;;;;;;5033251;28;20052;-74
2023/07/11 04:15:26;;;;;;;3.25;0.63;;;24.20;77.00;;;;;;5032881;28;20462;-73
2023/07/11 04:17:52;;;;;;;3.17;0.88;;;24.20;77.10;;;;;;5015206;28;20044;-74
2023/07/11 04:20:17;;;;;;;1.55;0.60;;;24.20;77.30;;;;;;5032891;28;20037;-74
2023/07/11 04:22:43;;;;;;;1.77;0.60;;;24.20;77.40;;;;;;5032724;28;20037;-73
2023/07/11 04:25:09;;;;;;;1.38;0.70;;;24.20;77.50;;;;;;5032887;28;20116;-73
2023/07/11 04:27:35;;;;;;;2.47;0.80;;;24.10;77.40;;;;;;5032438;28;20050;-73
2023/07/11 04:30:01;;;;;;;4.90;0.98;;;24.10;77.30;;;;;;5033052;28;20080;-73
2023/07/11 04:32:27;;;;;;;5.50;0.93;;;24.10;77.40;;;;;;5033266;28;20038;-73
2023/07/11 04:34:53;;;;;;;3.92;1.17;;;24.10;77.30;;;;;;5032408;28;20041;-73
2023/07/11 04:37:18;;;;;;;2.45;1.00;;;24.10;77.10;;;;;;5015214;28;20393;-73
2023/07/11 04:39:44;;;;;;;1.83;0.55;;;24.10;77.00;;;;;;5032695;28;20037;-74
2023/07/11 04:42:10;;;;;;;2.92;0.90;;;24.10;77.20;;;;;;5032848;28;20029;-74
2023/07/11 04:44:35;;;;;;;2.45;0.75;;;24.10;77.40;;;;;;5032850;28;20334;-74
2023/07/11 04:47:01;;;;;;;2.42;0.82;;;24.00;77.30;;;;;;5032650;28;20022;-73
2023/07/11 04:49:27;;;;;;;3.72;0.73;;;24.00;77.50;;;;;;5019020;28;20444;-74
2023/07/11 04:51:53;;;;;;;1.35;0.55;;;24.00;77.20;;;;;;5019342;28;20564;-74
2023/07/11 04:54:18;;;;;;;4.15;1.05;;;23.90;77.40;;;;;;5036322;28;20060;-74
2023/07/11 04:56:44;;;;;;;2.60;0.88;;;23.90;77.70;;;;;;5036432;28;20044;-73
2023/07/11 04:59:10;;;;;;;2.33;0.68;;;24.00;77.60;;;;;;5036335;28;20034;-73
2023/07/11 05:01:36;;;;;;;2.15;1.10;;;23.90;77.60;;;;;;5036593;28;20033;-74
2023/07/11 05:04:01;;;;;;;2.53;0.80;;;24.00;77.60;;;;;;5036222;28;20030;-74
2023/07/11 05:06:27;;;;;;;3.72;0.90;;;24.00;77.80;;;;;;5035987;28;20097;-74
2023/07/11 05:08:53;;;;;;;2.22;0.90;;;23.90;77.80;;;;;;5036132;28;20043;-74
2023/07/11 05:11:21;;;;;;;3.00;0.85;;;23.90;77.60;;;;;;5018264;28;20377;-74
2023/07/11 05:13:48;;;;;;;2.10;0.50;;;23.90;77.90;;;;;;5018464;28;20390;-74
2023/07/11 05:16:19;;;;;;;1.80;0.70;;;23.90;78.00;;;;;;5036135;28;20029;-74
2023/07/11 05:18:46;;;;;;;1.88;0.73;;;23.90;78.20;;;;;;5035989;28;20036;-73
2023/07/11 05:21:14;;;;;;;3.10;1.15;;;23.80;77.60;;;;;;5018487;28;20068;-74
2023/07/11 05:23:40;;;;;;;3.35;0.60;;;23.80;77.90;;;;;;5035932;28;20326;-74
2023/07/11 05:26:06;;;;;;;3.55;0.80;;;23.80;78.20;;;;;;5036342;28;20108;-74
2023/07/11 05:28:32;;;;;;;2.63;0.82;;;23.80;78.30;;;;;;5036086;28;20449;-74
2023/07/11 05:31:01;;;;;;;1.83;0.80;;;23.80;78.30;;;;;;5036107;28;20068;-73
2023/07/11 05:33:27;;;;;;;2.53;0.70;;;23.80;78.40;;;;;;5036001;28;20030;-74
2023/07/11 05:38:55;;;;;;;2.75;0.88;;;23.80;78.50;;;;;;5035716;28;20052;-73
2023/07/11 05:41:21;;;;;;;3.55;0.93;;;23.80;78.50;;;;;;5018086;28;20338;-73
2023/07/11 05:43:46;;;;;;;5.88;1.60;;;23.80;78.70;;;;;;5035813;28;20033;-74
2023/07/11 05:46:13;;;;;;;2.20;1.00;;;23.90;78.60;;;;;;5035755;28;20034;-73
2023/07/11 05:48:39;;;;;;;2.35;1.08;;;23.80;78.50;;;;;;5035285;28;20032;-74
2023/07/11 05:51:10;;;;;;;1.80;0.80;;;23.80;78.70;;;;;;5035469;28;20037;-74
2023/07/11 05:53:37;;;;;;;3.17;1.30;;;23.90;78.70;;;;;;5035626;28;20043;-73
2023/07/11 05:56:04;;;;;;;3.15;1.10;;;24.00;78.80;;;;;;5035508;28;20038;-74
2023/07/11 05:58:31;;;;;;;2.40;0.80;;;24.00;78.70;;;;;;5035031;28;20398;-74
2023/07/11 06:00:58;;;;;;;2.97;1.50;;;24.10;78.60;;;;;;5017953;28;20057;-73
2023/07/11 06:03:26;;;;;;;2.35;1.20;;;24.10;78.00;;;;;;5035116;28;20029;-73
2023/07/11 06:05:53;;;;;;;4.03;1.52;;;24.00;78.40;;;;;;5034670;28;20029;-74
2023/07/11 06:08:19;;;;;;;3.88;0.93;;;24.10;78.60;;;;;;5034976;28;20037;-73
2023/07/11 06:10:45;;;;;;;3.08;1.10;;;24.10;78.60;;;;;;5035186;28;20037;-73
2023/07/11 06:13:12;;;;;;;4.00;1.00;;;24.00;78.20;;;;;;5034791;28;20029;-73
2023/07/11 06:15:37;;;;;;;4.60;0.90;;;24.00;78.40;;;;;;5035053;28;20509;-75
2023/07/11 06:18:03;;;;;;;2.75;0.82;;;24.10;78.60;;;;;;5017250;28;20029;-74
2023/07/11 06:20:29;;;;;;;2.83;1.08;;;24.20;78.50;;;;;;5017020;28;20544;-74
2023/07/11 06:22:55;;;;;;;3.65;1.23;;;24.20;78.50;;;;;;5034793;28;20501;-74
2023/07/11 06:25:21;;;;;;;2.30;1.05;;;24.30;78.50;;;;;;5016726;28;20037;-74
2023/07/11 06:27:47;;;;;;;2.55;0.90;;;24.40;77.70;;;;;;5034869;28;20064;-74
2023/07/11 06:30:13;;;;;;;3.90;0.98;;;24.40;77.80;;;;;;5034533;28;20037;-75
2023/07/11 06:32:38;;;;;;;3.63;1.05;;;24.60;77.90;;;;;;5016703;28;20465;-74
2023/07/11 06:35:04;;;;;;;1.92;0.90;;;24.70;77.00;;;;;;5016774;28;20083;-74
2023/07/11 06:37:30;;;;;;;4.40;1.00;;;24.70;76.70;;;;;;5034543;28;20432;-74
2023/07/11 06:39:56;;;;;;;4.32;1.00;;;24.80;76.60;;;;;;5034967;28;20116;-74
2023/07/11 06:42:21;;;;;;;4.28;1.17;;;24.80;75.70;;;;;;5034791;28;20037;-74
2023/07/11 06:44:47;;;;;;;3.90;1.00;;;24.90;74.30;;;;;;5034126;28;20118;-73
2023/07/11 06:47:13;;;;;;;3.15;1.02;;;24.90;74.50;;;;;;5034406;28;20037;-74
2023/07/11 06:49:39;;;;;;;5.13;1.20;;;25.00;75.00;;;;;;5016427;28;20033;-74
2023/07/11 06:52:05;;;;;;;3.92;1.02;;;24.90;74.80;;;;;;5016882;28;20393;-74
2023/07/11 06:54:30;;;;;;;3.38;1.25;;;25.00;74.70;;;;;;5034221;28;20407;-74
2023/07/11 06:56:59;;;;;;;1.75;0.73;;;25.00;74.40;;;;;;5033962;28;20026;-74
2023/07/11 06:59:25;;;;;;;6.72;1.20;;;25.10;74.90;;;;;;5034130;28;20021;-74
2023/07/11 07:01:51;;;;;;;4.18;1.08;;;25.20;75.00;;;;;;5016470;28;20033;-74
2023/07/11 07:04:17;;;;;;;3.33;1.35;;;25.20;74.70;;;;;;5033871;28;20025;-74
2023/07/11 07:06:43;;;;;;;6.63;1.30;;;25.30;74.90;;;;;;5034139;28;20068;-74
2023/07/11 07:09:09;;;;;;;4.43;1.25;;;25.30;74.20;;;;;;5033999;28;20083;-74
2023/07/11 07:11:36;;;;;;;5.93;2.42;;;25.30;73.70;;;;;;5033086;28;20036;-75
2023/07/11 07:14:04;;;;;;;3.20;1.40;;;25.20;74.40;;;;;;5034099;28;20033;-74
2023/07/11 07:16:32;;;;;;;4.30;1.70;;;25.20;75.00;;;;;;5033689;28;20035;-74
2023/07/11 07:18:58;;;;;;;3.78;1.77;;;25.20;74.90;;;;;;5016201;28;20128;-73
2023/07/11 07:21:24;;;;;;;3.13;1.35;;;25.40;74.70;;;;;;5033753;28;20030;-74
2023/07/11 07:23:49;;;;;;;3.50;1.50;;;25.40;74.80;;;;;;5033548;28;20124;-74
2023/07/11 07:26:15;;;;;;;4.45;1.25;;;25.50;74.70;;;;;;5016049;28;20394;-74
2023/07/11 07:28:41;;;;;;;3.53;1.83;;;25.50;74.80;;;;;;5033532;28;20068;-74
2023/07/11 07:31:07;;;;;;;6.45;1.52;;;25.60;74.80;;;;;;5033720;28;20071;-74
2023/07/11 07:33:33;;;;;;;4.65;1.65;;;25.70;75.40;;;;;;5033820;28;20064;-74
2023/07/11 07:36:04;;;;;;;4.38;1.42;;;25.70;75.30;;;;;;5032942;28;20044;-75
2023/07/11 07:38:30;;;;;;;4.78;1.42;;;25.80;75.60;;;;;;5033581;28;20024;-74
2023/07/11 07:40:58;;;;;;;6.93;1.70;;;25.80;74.90;;;;;;5033548;28;20030;-74
2023/07/11 07:43:25;;;;;;;4.72;1.50;;;25.80;74.70;;;;;;5033779;28;20120;-75
2023/07/11 07:45:52;;;;;;;8.50;1.58;;;25.90;75.20;;;;;;5033526;28;20044;-75
2023/07/11 07:48:18;;;;;;;6.45;1.50;;;25.80;74.50;;;;;;5033204;28;20103;-75
2023/07/11 07:50:44;;;;;;;5.32;1.85;;;25.90;74.10;;;;;;5033391;28;20029;-75
2023/07/11 07:53:14;;;;;;;5.43;1.65;;;26.00;74.10;;;;;;5033314;28;20064;-74
2023/07/11 07:55:40;;;;;;;3.22;1.38;;;26.10;74.40;;;;;;4999810;28;20048;-75
2023/07/11 07:58:06;;;;;;;4.47;1.30;;;26.20;73.90;;;;;;5015654;28;20030;-74
2023/07/11 08:00:32;;;;;;;3.88;1.38;;;26.30;73.30;;;;;;5032854;28;20064;-74
2023/07/11 08:02:58;;;;;;;5.97;1.60;;;26.30;72.50;;;;;;5033022;28;20095;-75
2023/07/11 08:05:25;;;;;;;3.90;1.30;;;26.30;71.10;;;;;;5032715;28;20033;-74
2023/07/11 08:07:51;;;;;;;3.38;0.95;;;26.40;71.90;;;;;;5033347;28;20137;-75
2023/07/11 08:10:17;;;;;;;3.22;1.30;;;26.40;72.20;;;;;;5033047;28;20430;-75
2023/07/11 08:12:44;;;;;;;5.18;1.20;;;26.50;71.90;;;;;;5032919;28;20037;-75
2023/07/11 08:15:11;;;;;;;4.82;1.20;;;26.70;71.30;;;;;;5032639;28;20462;-75
2023/07/11 08:17:37;;;;;;;3.90;1.30;;;26.80;71.60;;;;;;5032888;28;20116;-74
2023/07/11 08:20:04;;;;;;;5.95;1.38;;;26.80;69.70;;;;;;5015054;28;20041;-75
2023/07/11 08:22:30;;;;;;;5.97;1.30;;;26.90;69.50;;;;;;5032615;28;20030;-75
2023/07/11 08:24:55;;;;;;;5.38;1.25;;;26.90;70.80;;;;;;5032862;28;20052;-74
2023/07/11 08:27:22;;;;;;;7.47;1.27;;;27.00;70.60;;;;;;5014858;28;20513;-75
2023/07/11 08:29:48;;;;;;;2.88;1.10;;;27.10;69.70;;;;;;5015341;28;20033;-75
2023/07/11 08:32:14;;;;;;;4.70;1.20;;;27.10;69.20;;;;;;5032855;28;20033;-75
2023/07/11 08:34:41;;;;;;;3.67;0.88;;;27.20;69.00;;;;;;5032282;28;20026;-75
2023/07/11 08:37:07;;;;;;;3.45;1.15;;;27.30;68.20;;;;;;5032420;28;20029;-74
2023/07/11 08:39:33;;;;;;;6.30;1.00;;;27.30;67.10;;;;;;5032776;28;20055;-75
2023/07/11 08:42:05;;;;;;;8.23;1.05;;;27.30;66.90;;;;;;4998542;28;20120;-74
2023/07/11 08:44:45;;;;;;;2.60;1.00;;;27.40;66.90;;;;;;5032684;28;20108;-74
2023/07/11 08:47:19;;;;;;;4.93;1.58;;;27.40;67.10;;;;;;5032481;28;20032;-74
2023/07/11 08:50:20;;;;;;;4.35;1.35;;;27.40;67.30;;;;;;5032552;28;20033;-74
2023/07/11 08:52:50;;;;;;;4.15;1.00;;;27.40;66.40;;;;;;5015148;28;20064;-74
2023/07/11 08:55:32;;;;;;;3.38;0.88;;;27.40;66.50;;;;;;5032206;28;20327;-74
2023/07/11 08:58:07;;;;;;;7.82;1.20;;;27.50;67.50;;;;;;5032529;28;20028;-75
2023/07/11 09:00:33;;;;;;;7.35;1.45;;;27.60;67.70;;;;;;5014863;28;20124;-74
2023/07/11 09:03:04;;;;;;;3.80;1.13;;;27.70;67.40;;;;;;5032064;28;20486;-75
2023/07/11 09:05:52;;;;;;;3.65;0.90;;;27.80;66.00;;;;;;5032110;28;20029;-74
2023/07/11 09:08:19;;;;;;;3.63;1.13;;;27.90;66.00;;;;;;5032293;28;20041;-74
2023/07/11 09:11:11;;;;;;;4.47;1.00;;;28.00;66.30;;;;;;5032098;28;20437;-75
2023/07/11 09:13:37;;;;;;;4.38;1.13;;;28.00;66.50;;;;;;5032052;28;20473;-74
2023/07/11 09:16:27;;;;;;;6.57;1.10;;;28.00;65.30;;;;;;5031987;28;20095;-75
2023/07/11 09:18:52;;;;;;;3.15;1.13;;;28.00;65.50;;;;;;5032416;28;20474;-76
2023/07/11 09:21:27;;;;;;;3.45;0.77;;;28.00;65.50;;;;;;5032091;28;20030;-75
2023/07/11 09:24:02;;;;;;;4.85;0.85;;;28.00;65.60;;;;;;5032239;28;20026;-74
2023/07/11 09:26:29;;;;;;;4.63;1.10;;;28.10;66.00;;;;;;5032420;28;20030;-75
2023/07/11 09:29:04;;;;;;;3.35;0.70;;;28.00;65.70;;;;;;5014548;28;20053;-75
2023/07/11 09:31:39;;;;;;;4.50;1.00;;;28.00;65.40;;;;;;5031947;28;20474;-75
2023/07/11 09:34:18;;;;;;;4.40;0.80;;;28.10;66.00;;;;;;5033495;28;20037;-75
2023/07/11 09:36:46;;;;;;;4.95;0.82;;;28.10;65.70;;;;;;5035956;28;20033;-75
2023/07/11 09:39:31;;;;;;;3.40;0.73;;;28.00;65.10;;;;;;5018030;28;20029;-75
2023/07/11 09:42:28;;;;;;;4.28;1.00;;;27.90;65.70;;;;;;5035820;28;20034;-75
2023/07/11 09:44:59;;;;;;;5.43;1.10;;;27.90;65.70;;;;;;5017596;28;20068;-75
2023/07/11 09:47:30;;;;;;;4.05;1.13;;;27.90;65.90;;;;;;5001489;28;20120;-75
2023/07/11 09:49:57;;;;;;;4.70;1.65;;;28.00;66.10;;;;;;5035593;28;20140;-74
2023/07/11 09:52:26;;;;;;;5.30;1.00;;;28.20;66.40;;;;;;5035119;28;20034;-75
2023/07/11 09:54:53;;;;;;;3.42;0.90;;;28.20;65.40;;;;;;5035614;28;20452;-74
2023/07/11 09:57:19;;;;;;;4.93;1.05;;;28.20;65.30;;;;;;5035154;28;20103;-74
2023/07/11 09:59:54;;;;;;;5.30;0.90;;;28.10;64.60;;;;;;5035310;28;20041;-74
2023/07/11 10:02:22;;;;;;;3.60;0.90;;;28.00;63.70;;;;;;5035264;28;20473;-74
2023/07/11 10:04:49;;;;;;;5.40;0.98;;;27.90;63.40;;;;;;5034616;28;20037;-74
2023/07/11 10:07:15;;;;;;;4.22;0.80;;;27.90;64.70;;;;;;5017607;28;20036;-74
2023/07/11 10:09:46;;;;;;;3.75;0.80;;;27.80;65.10;;;;;;5035381;28;20037;-74
2023/07/11 10:12:19;;;;;;;3.47;0.98;;;27.80;64.70;;;;;;5017577;28;20380;-74
2023/07/11 10:14:53;;;;;;;4.72;0.77;;;27.80;64.70;;;;;;5018256;28;20021;-74
2023/07/11 10:17:26;;;;;;;3.17;0.80;;;27.70;65.30;;;;;;5035102;28;20029;-74
2023/07/11 10:19:57;;;;;;;4.10;0.90;;;27.80;65.00;;;;;;5035166;28;20074;-74
2023/07/11 10:22:28;;;;;;;3.47;0.82;;;27.80;65.90;;;;;;5034831;28;20041;-74
2023/07/11 10:25:18;;;;;;;5.05;0.77;;;27.80;64.90;;;;;;5034646;28;20064;-75
2023/07/11 10:28:22;;;;;;;8.25;1.50;;;27.90;65.50;;;;;;5034653;28;20117;-75
2023/07/11 10:30:50;;;;;;;3.58;0.85;;;28.10;65.70;;;;;;5034895;28;20128;-75
2023/07/11 10:33:24;;;;;;;5.90;0.98;;;28.20;65.50;;;;;;5034983;28;20029;-75
2023/07/11 10:35:55;;;;;;;5.78;1.00;;;28.30;66.00;;;;;;5016713;28;20406;-75
2023/07/11 10:38:26;;;;;;;5.75;0.90;;;28.50;65.50;;;;;;5034499;28;20036;-75
2023/07/11 10:40:57;;;;;;;4.53;1.10;;;28.60;65.60;;;;;;5034805;28;20060;-75
2023/07/11 10:43:35;;;;;;;4.43;1.05;;;28.60;64.10;;;;;;5034772;28;20041;-74
2023/07/11 10:46:12;;;;;;;4.65;1.13;;;28.50;64.60;;;;;;5033512;28;20072;-75
2023/07/11 10:48:50;;;;;;;4.22;1.27;;;28.40;64.00;;;;;;5034829;28;20029;-74
2023/07/11 10:51:21;;;;;;;4.35;1.42;;;28.40;64.50;;;;;;5034321;28;20108;-73
2023/07/11 10:54:30;;;;;;;3.70;1.17;;;28.60;66.10;;;;;;5034866;28;20040;-74
2023/07/11 10:57:01;;;;;;;3.33;1.13;;;28.60;65.70;;;;;;5016650;28;20033;-74
2023/07/11 10:59:30;;;;;;;4.68;0.95;;;28.70;64.80;;;;;;5034482;28;20099;-74
2023/07/11 11:02:11;;;;;;;3.63;1.10;;;28.70;63.60;;;;;;5033851;28;20171;-74
2023/07/11 11:04:48;;;;;;;5.65;1.60;;;28.60;63.00;;;;;;5033942;28;20026;-74
2023/07/11 11:07:27;;;;;;;4.82;1.25;;;28.60;63.20;;;;;;5034590;28;20021;-74
2023/07/11 11:10:29;;;;;;;5.10;1.15;;;28.50;62.50;;;;;;4999982;28;20042;-75
2023/07/11 11:13:27;;;;;;;4.88;0.93;;;28.40;63.00;;;;;;5034541;28;20037;-74
2023/07/11 11:16:06;;;;;;;4.30;1.30;;;28.40;63.10;;;;;;5034298;28;20072;-74
2023/07/11 11:18:59;;;;;;;6.75;1.35;;;28.40;63.60;;;;;;5033998;28;20433;-75
2023/07/11 11:21:46;;;;;;;6.22;1.20;;;28.50;63.50;;;;;;5016331;28;20041;-74
2023/07/11 11:24:23;;;;;;;7.43;1.45;;;28.60;63.70;;;;;;5033697;28;20083;-74
2023/07/11 11:27:01;;;;;;;5.88;1.30;;;28.60;63.20;;;;;;5033594;28;20036;-73
2023/07/11 11:29:35;;;;;;;4.95;1.30;;;28.70;62.40;;;;;;5033842;28;20470;-75
2023/07/11 11:32:39;;;;;;;4.57;1.30;;;28.80;62.30;;;;;;5033658;28;20045;-74
2023/07/11 11:35:22;;;;;;;4.95;0.95;;;28.80;62.00;;;;;;5033153;28;20041;-75
2023/07/11 11:38:08;;;;;;;3.08;1.27;;;28.80;63.10;;;;;;5016092;28;20132;-74
2023/07/11 11:40:37;;;;;;;5.32;1.75;;;28.90;63.40;;;;;;5033527;28;20045;-74
2023/07/11 11:43:06;;;;;;;4.88;1.00;;;28.90;62.40;;;;;;5033386;28;20076;-74
2023/07/11 11:45:33;;;;;;;4.13;1.05;;;28.90;62.80;;;;;;5033584;28;20531;-74
2023/07/11 11:48:02;;;;;;;4.30;1.05;;;28.80;62.10;;;;;;5033615;28;20031;-74
2023/07/11 11:50:30;;;;;;;4.05;1.50;;;28.80;62.40;;;;;;5033271;28;20120;-74
2023/07/11 11:53:15;;;;;;;5.50;1.25;;;28.80;63.20;;;;;;5033060;28;20033;-75
2023/07/11 11:55:48;;;;;;;4.70;1.13;;;28.80;62.70;;;;;;5033591;28;20128;-74
2023/07/11 11:58:16;;;;;;;4.90;1.02;;;28.80;62.90;;;;;;5015316;28;20097;-74
2023/07/11 12:00:51;;;;;;;5.55;1.30;;;28.80;63.10;;;;;;5033060;28;20474;-75
2023/07/11 12:03:29;;;;;;;3.05;1.45;;;28.70;63.60;;;;;;5032951;28;20032;-74
2023/07/11 12:05:57;;;;;;;3.28;0.82;;;28.70;64.00;;;;;;5032569;28;20029;-75
2023/07/11 12:08:25;;;;;;;5.95;1.17;;;28.70;64.00;;;;;;5033196;28;20033;-75
2023/07/11 12:11:07;;;;;;;4.55;0.90;;;28.70;64.50;;;;;;5032861;28;20036;-74
2023/07/11 12:13:41;;;;;;;;;;;28.80;65.30;;;;;;5033650;28;20030;-75
2023/07/11 12:16:29;;;;;;;6.60;1.10;;;28.80;65.30;;;;;;5015209;28;19904;-74
2023/07/11 12:19:02;;;;;;;3.75;1.05;;;28.90;63.90;;;;;;5032788;28;20028;-74
2023/07/11 12:21:38;;;;;;;3.88;1.20;;;28.90;63.40;;;;;;5033230;28;20109;-74
2023/07/11 12:24:31;;;;;;;7.65;1.27;;;28.90;63.30;;;;;;5033078;28;20026;-74
2023/07/11 12:26:56;;;;;;;5.80;1.17;;;28.90;63.50;;;;;;5032640;28;20458;-74
2023/07/11 12:29:53;;;;;;;4.75;1.05;;;28.90;63.90;;;;;;4998464;28;20037;-74
2023/07/11 12:32:31;;;;;;;3.47;1.25;;;29.00;64.10;;;;;;5032932;28;20025;-74
2023/07/11 12:34:58;;;;;;;3.50;1.23;;;29.00;63.40;;;;;;5032434;28;20025;-74
2023/07/11 12:37:27;;;;;;;2.72;1.23;;;29.00;63.20;;;;;;5032722;28;20079;-75
2023/07/11 12:40:16;;;;;;;5.55;1.60;;;29.10;64.10;;;;;;5032851;28;20029;-74
2023/07/11 12:42:53;;;;;;;2.50;1.05;;;29.10;64.50;;;;;;5031793;28;20041;-74
2023/07/11 12:45:36;;;;;;;6.25;1.27;;;29.00;63.80;;;;;;5032651;28;20029;-73
2023/07/11 12:48:17;;;;;;;3.92;1.05;;;29.00;63.40;;;;;;5014804;28;20025;-74
2023/07/11 12:50:45;;;;;;;4.82;1.35;;;29.10;64.20;;;;;;5014988;28;20475;-74
2023/07/11 12:53:11;;;;;;;4.07;1.00;;;29.10;63.30;;;;;;5032539;28;20033;-74
2023/07/11 12:55:40;;;;;;;3.78;1.20;;;29.20;63.20;;;;;;5032639;28;20037;-74
2023/07/11 12:58:06;;;;;;;5.72;1.40;;;29.30;63.40;;;;;;5014782;28;20057;-74
2023/07/11 13:00:32;;;;;;;3.40;1.27;;;29.40;62.80;;;;;;5015196;28;20548;-74
2023/07/11 13:03:15;;;;;;;3.08;0.95;;;29.40;62.90;;;;;;4998617;28;20040;-75